OKPUS24 LKHV-LKHV

Flight info

Callsign OKPUS24
Flight time 0h 5m
Altitude 2200
Route AIRPORT PATTERN
Aircraft C152/L-V/N

Departure

Time 2026-04-15 08:03
Airport Hořovice Airfield (LKHV)

Arrival

Time 2026-04-15 08:09
Airport Hořovice Airfield (LKHV)
Time Latitude Longitude Altitude Speed Heading
2026-04-15 07:39 49.84449 13.88555 1224 ft 0 kts 159°
2026-04-15 07:53 49.84446 13.88555 1226 ft 0 kts 224°
2026-04-15 07:53 49.84450 13.88547 1226 ft 4 kts 332°
2026-04-15 07:53 49.84460 13.88522 1226 ft 5 kts 246°
2026-04-15 07:54 49.84432 13.88394 1226 ft 16 kts 278°
2026-04-15 07:54 49.84456 13.88312 1225 ft 0 kts 335°
2026-04-15 07:54 49.84457 13.88311 1225 ft 2 kts 335°
2026-04-15 07:54 49.84506 13.88338 1224 ft 11 kts 63°
2026-04-15 07:55 49.84550 13.88488 1226 ft 19 kts 66°
2026-04-15 07:55 49.84598 13.88650 1226 ft 1 kts 64°
2026-04-15 07:56 49.84619 13.88726 1227 ft 6 kts 67°
2026-04-15 07:56 49.84624 13.88741 1227 ft 2 kts 64°
2026-04-15 07:56 49.84652 13.88839 1227 ft 6 kts 66°
2026-04-15 07:56 49.84654 13.88844 1227 ft 2 kts 64°
2026-04-15 07:57 49.84689 13.88964 1226 ft 19 kts 66°
2026-04-15 07:57 49.84750 13.89174 1226 ft 25 kts 66°
2026-04-15 07:57 49.84824 13.89432 1226 ft 29 kts 65°
2026-04-15 07:57 49.84905 13.89710 1229 ft 27 kts 65°
2026-04-15 07:58 49.84981 13.89973 1230 ft 28 kts 66°
2026-04-15 07:58 49.85066 13.90265 1228 ft 27 kts 66°
2026-04-15 07:58 49.85079 13.90401 1227 ft 2 kts 94°
2026-04-15 07:58 49.85079 13.90405 1227 ft 0 kts 34°
2026-04-15 08:02 49.85092 13.90359 1227 ft 11 kts 246°
2026-04-15 08:02 49.85011 13.90074 1229 ft 54 kts 245°
2026-04-15 08:03 49.84797 13.89355 1258 ft 85 kts 245°
2026-04-15 08:03 49.84544 13.88504 1434 ft 86 kts 246°
2026-04-15 08:03 49.84309 13.87693 1671 ft 82 kts 247°
2026-04-15 08:03 49.84089 13.86886 1874 ft 82 kts 249°
2026-04-15 08:04 49.83881 13.86064 2083 ft 83 kts 250°
2026-04-15 08:04 49.83764 13.85183 2208 ft 88 kts 288°
2026-04-15 08:04 49.84184 13.84527 2196 ft 91 kts 346°
2026-04-15 08:04 49.84800 13.84313 2182 ft 89 kts 352°
2026-04-15 08:05 49.85404 13.84105 2182 ft 91 kts 348°
2026-04-15 08:05 49.85951 13.84369 2164 ft 87 kts 54°
2026-04-15 08:05 49.86114 13.85276 2183 ft 89 kts 79°
2026-04-15 08:05 49.86224 13.86213 2240 ft 87 kts 78°
2026-04-15 08:06 49.86300 13.86829 2249 ft 89 kts 77°
2026-04-15 08:06 49.86431 13.88062 2256 ft 87 kts 78°
2026-04-15 08:06 49.86498 13.88691 2236 ft 87 kts 80°
2026-04-15 08:06 49.86557 13.89629 2215 ft 89 kts 84°
2026-04-15 08:07 49.86613 13.90572 2181 ft 87 kts 73°
2026-04-15 08:07 49.86753 13.91509 2121 ft 90 kts 78°
2026-04-15 08:07 49.86622 13.92332 2060 ft 79 kts 143°
2026-04-15 08:07 49.86107 13.92409 1932 ft 72 kts 178°
2026-04-15 08:08 49.85631 13.92219 1781 ft 72 kts 232°
2026-04-15 08:08 49.85416 13.91492 1589 ft 74 kts 245°
2026-04-15 08:08 49.85214 13.90793 1426 ft 69 kts 248°
2026-04-15 08:08 49.85019 13.90115 1243 ft 65 kts 248°
2026-04-15 08:09 49.84868 13.89581 1229 ft 47 kts 245°
2026-04-15 08:09 49.84747 13.89163 1226 ft 35 kts 245°
2026-04-15 08:09 49.84651 13.88835 1227 ft 26 kts 246°
2026-04-15 08:09 49.84635 13.88780 1227 ft 3 kts 240°
2026-04-15 08:10 49.84583 13.88600 1227 ft 28 kts 246°
2026-04-15 08:10 49.84503 13.88330 1225 ft 15 kts 247°
2026-04-15 08:10 49.84452 13.88315 1225 ft 13 kts 131°
2026-04-15 08:10 49.84443 13.88463 1226 ft 15 kts 66°
2026-04-15 08:11 49.84458 13.88545 1226 ft 5 kts 137°
2026-04-15 08:11 49.84451 13.88554 1226 ft 0 kts 143°